sensor_id;sensor_type;location;lat;lon;timestamp;temperature;humidity
60473;DHT22;46318;52.716;6.444;2023-04-29T00:00:10;10.60;99.90
60473;DHT22;46318;52.716;6.444;2023-04-29T00:02:36;10.60;99.90
60473;DHT22;46318;52.716;6.444;2023-04-29T00:05:02;10.60;99.90
60473;DHT22;46318;52.716;6.444;2023-04-29T00:07:30;10.50;99.90
60473;DHT22;46318;52.716;6.444;2023-04-29T00:09:59;10.60;99.90
60473;DHT22;46318;52.716;6.444;2023-04-29T00:12:25;10.60;99.90
60473;DHT22;46318;52.716;6.444;2023-04-29T00:14:51;10.50;99.90
60473;DHT22;46318;52.716;6.444;2023-04-29T00:17:17;10.50;99.90
60473;DHT22;46318;52.716;6.444;2023-04-29T00:19:43;10.50;99.90
60473;DHT22;46318;52.716;6.444;2023-04-29T00:22:09;10.50;99.90
60473;DHT22;46318;52.716;6.444;2023-04-29T00:24:35;10.50;99.90
60473;DHT22;46318;52.716;6.444;2023-04-29T00:27:01;10.50;99.90
60473;DHT22;46318;52.716;6.444;2023-04-29T00:29:27;10.50;99.90
60473;DHT22;46318;52.716;6.444;2023-04-29T00:31:53;10.50;99.90
60473;DHT22;46318;52.716;6.444;2023-04-29T00:34:19;10.50;99.90
60473;DHT22;46318;52.716;6.444;2023-04-29T00:36:45;10.50;99.90
60473;DHT22;46318;52.716;6.444;2023-04-29T00:39:10;10.50;99.90
60473;DHT22;46318;52.716;6.444;2023-04-29T00:41:38;10.40;99.90
60473;DHT22;46318;52.716;6.444;2023-04-29T00:44:04;10.40;99.90
60473;DHT22;46318;52.716;6.444;2023-04-29T00:46:30;10.40;99.90
60473;DHT22;46318;52.716;6.444;2023-04-29T00:48:56;10.40;99.90
60473;DHT22;46318;52.716;6.444;2023-04-29T00:51:22;10.40;99.90
60473;DHT22;46318;52.716;6.444;2023-04-29T00:53:49;10.30;99.90
60473;DHT22;46318;52.716;6.444;2023-04-29T00:56:15;10.30;99.90
60473;DHT22;46318;52.716;6.444;2023-04-29T00:58:42;10.30;99.90
60473;DHT22;46318;52.716;6.444;2023-04-29T01:01:17;10.30;99.90
60473;DHT22;46318;52.716;6.444;2023-04-29T01:03:44;10.30;99.90
60473;DHT22;46318;52.716;6.444;2023-04-29T01:06:22;10.30;99.90
60473;DHT22;46318;52.716;6.444;2023-04-29T01:18:04;10.20;99.90
60473;DHT22;46318;52.716;6.444;2023-04-29T01:20:37;10.20;99.90
60473;DHT22;46318;52.716;6.444;2023-04-29T01:23:04;10.20;99.90
60473;DHT22;46318;52.716;6.444;2023-04-29T01:25:30;10.20;99.90
60473;DHT22;46318;52.716;6.444;2023-04-29T01:28:10;10.20;99.90
60473;DHT22;46318;52.716;6.444;2023-04-29T01:31:03;10.10;99.90
60473;DHT22;46318;52.716;6.444;2023-04-29T01:39:26;10.10;99.90
60473;DHT22;46318;52.716;6.444;2023-04-29T01:42:04;10.10;99.90
60473;DHT22;46318;52.716;6.444;2023-04-29T01:44:33;10.10;99.90
60473;DHT22;46318;52.716;6.444;2023-04-29T01:47:00;10.10;99.90
60473;DHT22;46318;52.716;6.444;2023-04-29T01:49:27;10.10;99.90
60473;DHT22;46318;52.716;6.444;2023-04-29T01:51:53;10.10;99.90
60473;DHT22;46318;52.716;6.444;2023-04-29T01:54:20;10.10;99.90
60473;DHT22;46318;52.716;6.444;2023-04-29T01:56:47;10.10;99.90
60473;DHT22;46318;52.716;6.444;2023-04-29T01:59:13;10.00;99.90
60473;DHT22;46318;52.716;6.444;2023-04-29T02:01:39;10.00;99.90
60473;DHT22;46318;52.716;6.444;2023-04-29T02:04:04;10.10;99.90
60473;DHT22;46318;52.716;6.444;2023-04-29T02:06:30;10.00;99.90
60473;DHT22;46318;52.716;6.444;2023-04-29T02:08:59;10.00;99.90
60473;DHT22;46318;52.716;6.444;2023-04-29T02:11:25;10.10;99.90
60473;DHT22;46318;52.716;6.444;2023-04-29T02:13:51;10.00;99.90
60473;DHT22;46318;52.716;6.444;2023-04-29T02:16:17;10.00;99.90
60473;DHT22;46318;52.716;6.444;2023-04-29T02:18:43;10.00;99.90
60473;DHT22;46318;52.716;6.444;2023-04-29T02:21:09;10.00;99.90
60473;DHT22;46318;52.716;6.444;2023-04-29T02:23:35;10.00;99.90
60473;DHT22;46318;52.716;6.444;2023-04-29T02:26:01;10.00;99.90
60473;DHT22;46318;52.716;6.444;2023-04-29T02:28:29;10.00;99.90
60473;DHT22;46318;52.716;6.444;2023-04-29T02:30:55;10.00;99.90
60473;DHT22;46318;52.716;6.444;2023-04-29T02:33:21;9.90;99.90
60473;DHT22;46318;52.716;6.444;2023-04-29T02:35:47;9.90;99.90
60473;DHT22;46318;52.716;6.444;2023-04-29T02:38:13;9.90;99.90
60473;DHT22;46318;52.716;6.444;2023-04-29T02:40:42;9.90;99.90
60473;DHT22;46318;52.716;6.444;2023-04-29T02:43:09;9.90;99.90
60473;DHT22;46318;52.716;6.444;2023-04-29T02:45:35;9.90;99.90
60473;DHT22;46318;52.716;6.444;2023-04-29T02:48:02;9.90;99.90
60473;DHT22;46318;52.716;6.444;2023-04-29T02:50:28;9.90;99.90
60473;DHT22;46318;52.716;6.444;2023-04-29T02:52:54;9.80;99.90
60473;DHT22;46318;52.716;6.444;2023-04-29T02:55:20;9.80;99.90
60473;DHT22;46318;52.716;6.444;2023-04-29T02:57:46;9.80;99.90
60473;DHT22;46318;52.716;6.444;2023-04-29T03:00:12;9.80;99.90
60473;DHT22;46318;52.716;6.444;2023-04-29T03:02:38;9.80;99.90
60473;DHT22;46318;52.716;6.444;2023-04-29T03:05:04;9.80;99.90
60473;DHT22;46318;52.716;6.444;2023-04-29T03:07:31;9.80;99.90
60473;DHT22;46318;52.716;6.444;2023-04-29T03:09:57;9.80;99.90
60473;DHT22;46318;52.716;6.444;2023-04-29T03:12:23;9.80;99.90
60473;DHT22;46318;52.716;6.444;2023-04-29T03:14:49;9.80;99.90
60473;DHT22;46318;52.716;6.444;2023-04-29T03:17:16;9.70;99.90
60473;DHT22;46318;52.716;6.444;2023-04-29T03:19:43;9.70;99.90
60473;DHT22;46318;52.716;6.444;2023-04-29T03:22:09;9.70;99.90
60473;DHT22;46318;52.716;6.444;2023-04-29T03:24:37;9.70;99.90
60473;DHT22;46318;52.716;6.444;2023-04-29T03:27:04;9.70;99.90
60473;DHT22;46318;52.716;6.444;2023-04-29T03:29:30;9.70;99.90
60473;DHT22;46318;52.716;6.444;2023-04-29T03:31:56;9.70;99.90
60473;DHT22;46318;52.716;6.444;2023-04-29T03:34:23;9.70;99.90
60473;DHT22;46318;52.716;6.444;2023-04-29T03:36:49;9.70;99.90
60473;DHT22;46318;52.716;6.444;2023-04-29T03:39:18;9.70;99.90
60473;DHT22;46318;52.716;6.444;2023-04-29T03:41:46;9.60;99.90
60473;DHT22;46318;52.716;6.444;2023-04-29T03:44:12;9.60;99.90
60473;DHT22;46318;52.716;6.444;2023-04-29T03:46:38;9.60;99.90
60473;DHT22;46318;52.716;6.444;2023-04-29T03:49:04;9.60;99.90
60473;DHT22;46318;52.716;6.444;2023-04-29T03:51:30;9.60;99.90
60473;DHT22;46318;52.716;6.444;2023-04-29T03:53:56;9.60;99.90
60473;DHT22;46318;52.716;6.444;2023-04-29T03:56:22;9.60;99.90
60473;DHT22;46318;52.716;6.444;2023-04-29T03:58:51;9.60;99.90
60473;DHT22;46318;52.716;6.444;2023-04-29T04:01:17;9.60;99.90
60473;DHT22;46318;52.716;6.444;2023-04-29T04:03:43;9.60;99.90
60473;DHT22;46318;52.716;6.444;2023-04-29T04:06:09;9.60;99.90
60473;DHT22;46318;52.716;6.444;2023-04-29T04:08:35;9.50;99.90
60473;DHT22;46318;52.716;6.444;2023-04-29T04:11:01;9.60;99.90
60473;DHT22;46318;52.716;6.444;2023-04-29T04:13:31;9.50;99.90
60473;DHT22;46318;52.716;6.444;2023-04-29T04:15:57;9.50;99.90
60473;DHT22;46318;52.716;6.444;2023-04-29T04:18:23;9.50;99.90
60473;DHT22;46318;52.716;6.444;2023-04-29T04:20:49;9.50;99.90
60473;DHT22;46318;52.716;6.444;2023-04-29T04:23:15;9.50;99.90
60473;DHT22;46318;52.716;6.444;2023-04-29T04:25:48;9.50;99.90
60473;DHT22;46318;52.716;6.444;2023-04-29T04:28:14;9.50;99.90
60473;DHT22;46318;52.716;6.444;2023-04-29T04:30:40;9.50;99.90
60473;DHT22;46318;52.716;6.444;2023-04-29T04:33:07;9.50;99.90
60473;DHT22;46318;52.716;6.444;2023-04-29T04:35:34;9.40;99.90
60473;DHT22;46318;52.716;6.444;2023-04-29T04:38:00;9.50;99.90
60473;DHT22;46318;52.716;6.444;2023-04-29T04:40:26;9.40;99.90
60473;DHT22;46318;52.716;6.444;2023-04-29T04:42:52;9.50;99.90
60473;DHT22;46318;52.716;6.444;2023-04-29T04:45:18;9.40;99.90
60473;DHT22;46318;52.716;6.444;2023-04-29T04:47:44;9.40;99.90
60473;DHT22;46318;52.716;6.444;2023-04-29T04:50:10;9.40;99.90
60473;DHT22;46318;52.716;6.444;2023-04-29T04:52:36;9.40;99.90
60473;DHT22;46318;52.716;6.444;2023-04-29T04:55:02;9.40;99.90
60473;DHT22;46318;52.716;6.444;2023-04-29T04:57:28;9.40;99.90
60473;DHT22;46318;52.716;6.444;2023-04-29T04:59:54;9.40;99.90
60473;DHT22;46318;52.716;6.444;2023-04-29T05:02:20;9.40;99.90
60473;DHT22;46318;52.716;6.444;2023-04-29T05:04:46;9.40;99.90
60473;DHT22;46318;52.716;6.444;2023-04-29T05:07:12;9.40;99.90
60473;DHT22;46318;52.716;6.444;2023-04-29T05:09:38;9.40;99.90
60473;DHT22;46318;52.716;6.444;2023-04-29T05:12:04;9.30;99.90
60473;DHT22;46318;52.716;6.444;2023-04-29T05:14:29;9.40;99.90
60473;DHT22;46318;52.716;6.444;2023-04-29T05:16:59;9.40;99.90
60473;DHT22;46318;52.716;6.444;2023-04-29T05:19:25;9.40;99.90
60473;DHT22;46318;52.716;6.444;2023-04-29T05:21:51;9.40;99.90
60473;DHT22;46318;52.716;6.444;2023-04-29T05:24:17;9.30;99.90
60473;DHT22;46318;52.716;6.444;2023-04-29T05:26:43;9.40;99.90
60473;DHT22;46318;52.716;6.444;2023-04-29T05:29:10;9.30;99.90
60473;DHT22;46318;52.716;6.444;2023-04-29T05:31:36;9.30;99.90
60473;DHT22;46318;52.716;6.444;2023-04-29T05:34:06;9.30;99.90
60473;DHT22;46318;52.716;6.444;2023-04-29T05:36:32;9.30;99.90
60473;DHT22;46318;52.716;6.444;2023-04-29T05:38:57;9.40;99.90
60473;DHT22;46318;52.716;6.444;2023-04-29T05:41:23;9.30;99.90
60473;DHT22;46318;52.716;6.444;2023-04-29T05:43:50;9.30;99.90
60473;DHT22;46318;52.716;6.444;2023-04-29T05:46:16;9.30;99.90
60473;DHT22;46318;52.716;6.444;2023-04-29T05:48:42;9.40;99.90
60473;DHT22;46318;52.716;6.444;2023-04-29T05:51:08;9.30;99.90
60473;DHT22;46318;52.716;6.444;2023-04-29T05:53:34;9.40;99.90
60473;DHT22;46318;52.716;6.444;2023-04-29T05:56:00;9.30;99.90
60473;DHT22;46318;52.716;6.444;2023-04-29T05:58:30;9.40;99.90
60473;DHT22;46318;52.716;6.444;2023-04-29T06:00:56;9.40;99.90
60473;DHT22;46318;52.716;6.444;2023-04-29T06:03:23;9.40;99.90
60473;DHT22;46318;52.716;6.444;2023-04-29T06:05:49;9.30;99.90
60473;DHT22;46318;52.716;6.444;2023-04-29T06:08:14;9.40;99.90
60473;DHT22;46318;52.716;6.444;2023-04-29T06:10:40;9.40;99.90
60473;DHT22;46318;52.716;6.444;2023-04-29T06:13:06;9.40;99.90
60473;DHT22;46318;52.716;6.444;2023-04-29T06:15:32;9.40;99.90
60473;DHT22;46318;52.716;6.444;2023-04-29T06:17:58;9.50;99.90
60473;DHT22;46318;52.716;6.444;2023-04-29T06:20:24;9.40;99.90
60473;DHT22;46318;52.716;6.444;2023-04-29T06:22:50;9.40;99.90
60473;DHT22;46318;52.716;6.444;2023-04-29T06:25:16;9.50;99.90
60473;DHT22;46318;52.716;6.444;2023-04-29T06:27:42;9.50;99.90
60473;DHT22;46318;52.716;6.444;2023-04-29T06:30:08;9.50;99.90
60473;DHT22;46318;52.716;6.444;2023-04-29T06:32:34;9.50;99.90
60473;DHT22;46318;52.716;6.444;2023-04-29T06:35:00;9.50;99.90
60473;DHT22;46318;52.716;6.444;2023-04-29T06:37:26;9.60;99.90
60473;DHT22;46318;52.716;6.444;2023-04-29T06:39:53;9.60;99.90
60473;DHT22;46318;52.716;6.444;2023-04-29T06:42:18;9.60;99.90
60473;DHT22;46318;52.716;6.444;2023-04-29T06:44:45;9.60;99.90
60473;DHT22;46318;52.716;6.444;2023-04-29T06:47:11;9.70;99.90
60473;DHT22;46318;52.716;6.444;2023-04-29T06:49:37;9.70;99.90
60473;DHT22;46318;52.716;6.444;2023-04-29T06:52:03;9.70;99.90
60473;DHT22;46318;52.716;6.444;2023-04-29T06:54:29;9.70;99.90
60473;DHT22;46318;52.716;6.444;2023-04-29T06:56:55;9.70;99.90
60473;DHT22;46318;52.716;6.444;2023-04-29T06:59:22;9.80;99.90
60473;DHT22;46318;52.716;6.444;2023-04-29T07:01:48;9.80;99.90
60473;DHT22;46318;52.716;6.444;2023-04-29T07:04:14;9.80;99.90
60473;DHT22;46318;52.716;6.444;2023-04-29T07:06:40;9.90;99.90
60473;DHT22;46318;52.716;6.444;2023-04-29T07:09:05;9.90;99.90
60473;DHT22;46318;52.716;6.444;2023-04-29T07:11:33;9.90;99.90
60473;DHT22;46318;52.716;6.444;2023-04-29T07:13:58;10.00;99.90
60473;DHT22;46318;52.716;6.444;2023-04-29T07:16:24;10.00;99.90
60473;DHT22;46318;52.716;6.444;2023-04-29T07:18:52;10.10;99.90
60473;DHT22;46318;52.716;6.444;2023-04-29T07:21:18;10.10;99.90
60473;DHT22;46318;52.716;6.444;2023-04-29T07:23:44;10.10;99.90
60473;DHT22;46318;52.716;6.444;2023-04-29T07:26:14;10.20;99.90
60473;DHT22;46318;52.716;6.444;2023-04-29T07:28:41;10.20;99.90
60473;DHT22;46318;52.716;6.444;2023-04-29T07:31:08;10.30;99.90
60473;DHT22;46318;52.716;6.444;2023-04-29T07:33:35;10.40;99.90
60473;DHT22;46318;52.716;6.444;2023-04-29T07:36:01;10.40;99.90
60473;DHT22;46318;52.716;6.444;2023-04-29T07:38:28;10.50;99.90
60473;DHT22;46318;52.716;6.444;2023-04-29T07:40:55;10.50;99.90
60473;DHT22;46318;52.716;6.444;2023-04-29T07:43:21;10.60;99.90
60473;DHT22;46318;52.716;6.444;2023-04-29T07:45:47;10.70;99.90
60473;DHT22;46318;52.716;6.444;2023-04-29T07:48:13;10.70;99.90
60473;DHT22;46318;52.716;6.444;2023-04-29T07:50:39;10.80;99.90
60473;DHT22;46318;52.716;6.444;2023-04-29T07:53:05;10.80;99.90
60473;DHT22;46318;52.716;6.444;2023-04-29T07:55:31;10.90;99.90
60473;DHT22;46318;52.716;6.444;2023-04-29T07:57:57;11.00;99.90
60473;DHT22;46318;52.716;6.444;2023-04-29T08:00:23;11.00;99.90
60473;DHT22;46318;52.716;6.444;2023-04-29T08:02:53;11.10;99.90
60473;DHT22;46318;52.716;6.444;2023-04-29T08:05:20;11.20;99.90
60473;DHT22;46318;52.716;6.444;2023-04-29T08:07:47;11.20;99.90
60473;DHT22;46318;52.716;6.444;2023-04-29T08:10:17;11.30;99.90
60473;DHT22;46318;52.716;6.444;2023-04-29T08:12:47;11.40;99.90
60473;DHT22;46318;52.716;6.444;2023-04-29T08:15:13;11.50;99.90
60473;DHT22;46318;52.716;6.444;2023-04-29T08:17:40;11.50;99.90
60473;DHT22;46318;52.716;6.444;2023-04-29T08:20:06;11.60;99.90
60473;DHT22;46318;52.716;6.444;2023-04-29T08:22:33;11.70;99.90
60473;DHT22;46318;52.716;6.444;2023-04-29T08:24:59;11.70;99.90
60473;DHT22;46318;52.716;6.444;2023-04-29T08:27:27;11.80;99.90
60473;DHT22;46318;52.716;6.444;2023-04-29T08:29:53;11.90;99.90
60473;DHT22;46318;52.716;6.444;2023-04-29T08:32:20;11.90;99.90
60473;DHT22;46318;52.716;6.444;2023-04-29T08:34:47;12.00;99.90
60473;DHT22;46318;52.716;6.444;2023-04-29T08:37:13;12.00;99.90
60473;DHT22;46318;52.716;6.444;2023-04-29T08:39:40;12.10;99.90
60473;DHT22;46318;52.716;6.444;2023-04-29T08:42:08;12.10;99.90
60473;DHT22;46318;52.716;6.444;2023-04-29T08:44:35;12.20;99.90
60473;DHT22;46318;52.716;6.444;2023-04-29T08:47:01;12.30;99.90
60473;DHT22;46318;52.716;6.444;2023-04-29T08:49:28;12.30;99.90
60473;DHT22;46318;52.716;6.444;2023-04-29T08:51:54;12.40;99.90
60473;DHT22;46318;52.716;6.444;2023-04-29T08:54:20;12.50;99.90
60473;DHT22;46318;52.716;6.444;2023-04-29T08:56:46;12.60;99.90
60473;DHT22;46318;52.716;6.444;2023-04-29T08:59:17;12.70;99.90
60473;DHT22;46318;52.716;6.444;2023-04-29T09:01:43;12.80;99.90
60473;DHT22;46318;52.716;6.444;2023-04-29T09:07:26;12.90;99.90
60473;DHT22;46318;52.716;6.444;2023-04-29T09:09:53;12.90;99.90
60473;DHT22;46318;52.716;6.444;2023-04-29T09:12:19;12.90;99.90
60473;DHT22;46318;52.716;6.444;2023-04-29T09:14:46;12.90;99.90
60473;DHT22;46318;52.716;6.444;2023-04-29T09:17:12;12.90;99.90
60473;DHT22;46318;52.716;6.444;2023-04-29T09:19:40;13.00;99.90
60473;DHT22;46318;52.716;6.444;2023-04-29T09:22:08;13.10;99.90
60473;DHT22;46318;52.716;6.444;2023-04-29T09:24:34;13.20;99.90
60473;DHT22;46318;52.716;6.444;2023-04-29T09:27:00;13.30;99.90
60473;DHT22;46318;52.716;6.444;2023-04-29T09:29:27;13.30;99.90
60473;DHT22;46318;52.716;6.444;2023-04-29T09:31:54;13.40;99.90
60473;DHT22;46318;52.716;6.444;2023-04-29T09:34:32;13.40;99.90
60473;DHT22;46318;52.716;6.444;2023-04-29T09:37:22;13.40;99.90
60473;DHT22;46318;52.716;6.444;2023-04-29T09:39:50;13.40;99.40
60473;DHT22;46318;52.716;6.444;2023-04-29T09:42:16;13.40;99.90
60473;DHT22;46318;52.716;6.444;2023-04-29T09:44:42;13.40;99.90
60473;DHT22;46318;52.716;6.444;2023-04-29T09:47:10;13.50;99.90
60473;DHT22;46318;52.716;6.444;2023-04-29T09:49:43;13.50;99.90
60473;DHT22;46318;52.716;6.444;2023-04-29T09:52:14;13.60;99.90
60473;DHT22;46318;52.716;6.444;2023-04-29T09:54:42;13.60;99.90
60473;DHT22;46318;52.716;6.444;2023-04-29T09:57:10;13.70;99.90
60473;DHT22;46318;52.716;6.444;2023-04-29T09:59:39;13.80;99.70
60473;DHT22;46318;52.716;6.444;2023-04-29T10:02:16;13.80;99.60
60473;DHT22;46318;52.716;6.444;2023-04-29T10:04:48;13.80;98.20
60473;DHT22;46318;52.716;6.444;2023-04-29T10:07:18;13.90;98.80
60473;DHT22;46318;52.716;6.444;2023-04-29T10:09:45;13.90;98.90
60473;DHT22;46318;52.716;6.444;2023-04-29T10:12:15;14.00;98.60
60473;DHT22;46318;52.716;6.444;2023-04-29T10:15:03;14.10;97.90
60473;DHT22;46318;52.716;6.444;2023-04-29T10:20:07;14.20;96.50
60473;DHT22;46318;52.716;6.444;2023-04-29T10:22:49;14.20;96.80
60473;DHT22;46318;52.716;6.444;2023-04-29T10:25:16;14.30;96.40
60473;DHT22;46318;52.716;6.444;2023-04-29T10:27:46;14.40;95.40
60473;DHT22;46318;52.716;6.444;2023-04-29T10:30:19;14.40;96.50
60473;DHT22;46318;52.716;6.444;2023-04-29T10:32:47;14.50;96.00
60473;DHT22;46318;52.716;6.444;2023-04-29T10:35:16;14.50;95.30
60473;DHT22;46318;52.716;6.444;2023-04-29T10:37:47;14.60;95.20
60473;DHT22;46318;52.716;6.444;2023-04-29T10:40:30;14.60;95.20
60473;DHT22;46318;52.716;6.444;2023-04-29T10:43:07;14.60;94.40
60473;DHT22;46318;52.716;6.444;2023-04-29T10:45:33;14.70;94.60
60473;DHT22;46318;52.716;6.444;2023-04-29T10:53:17;14.90;93.60
60473;DHT22;46318;52.716;6.444;2023-04-29T10:56:06;15.00;93.50
60473;DHT22;46318;52.716;6.444;2023-04-29T10:58:38;15.00;92.60
60473;DHT22;46318;52.716;6.444;2023-04-29T11:01:10;15.00;92.20
60473;DHT22;46318;52.716;6.444;2023-04-29T11:06:22;15.10;92.40
60473;DHT22;46318;52.716;6.444;2023-04-29T11:09:28;15.20;91.50
60473;DHT22;46318;52.716;6.444;2023-04-29T11:11:57;15.20;90.50
60473;DHT22;46318;52.716;6.444;2023-04-29T11:14:49;15.30;91.00
60473;DHT22;46318;52.716;6.444;2023-04-29T11:17:16;15.40;90.30
60473;DHT22;46318;52.716;6.444;2023-04-29T11:19:51;15.50;90.60
60473;DHT22;46318;52.716;6.444;2023-04-29T11:24:56;15.70;89.30
60473;DHT22;46318;52.716;6.444;2023-04-29T11:27:27;15.80;85.60
60473;DHT22;46318;52.716;6.444;2023-04-29T11:29:56;15.80;86.30
60473;DHT22;46318;52.716;6.444;2023-04-29T11:32:24;15.90;86.50
60473;DHT22;46318;52.716;6.444;2023-04-29T11:34:54;16.00;83.40
60473;DHT22;46318;52.716;6.444;2023-04-29T11:37:25;16.10;84.50
60473;DHT22;46318;52.716;6.444;2023-04-29T11:39:58;16.10;82.10
60473;DHT22;46318;52.716;6.444;2023-04-29T11:42:25;16.20;83.90
60473;DHT22;46318;52.716;6.444;2023-04-29T11:44:55;16.30;82.40
60473;DHT22;46318;52.716;6.444;2023-04-29T11:47:26;16.40;82.10
60473;DHT22;46318;52.716;6.444;2023-04-29T11:50:05;16.40;80.10
60473;DHT22;46318;52.716;6.444;2023-04-29T11:52:35;16.50;80.20
60473;DHT22;46318;52.716;6.444;2023-04-29T11:55:08;16.50;78.70
60473;DHT22;46318;52.716;6.444;2023-04-29T11:57:35;16.50;78.60
60473;DHT22;46318;52.716;6.444;2023-04-29T12:00:01;16.60;78.90
60473;DHT22;46318;52.716;6.444;2023-04-29T12:02:32;16.70;79.50
60473;DHT22;46318;52.716;6.444;2023-04-29T12:04:59;16.80;80.30
60473;DHT22;46318;52.716;6.444;2023-04-29T12:07:26;16.90;78.30
60473;DHT22;46318;52.716;6.444;2023-04-29T12:09:53;17.00;79.50
60473;DHT22;46318;52.716;6.444;2023-04-29T12:12:19;17.10;79.70
60473;DHT22;46318;52.716;6.444;2023-04-29T12:14:46;17.10;79.40
60473;DHT22;46318;52.716;6.444;2023-04-29T12:17:12;17.20;79.60
60473;DHT22;46318;52.716;6.444;2023-04-29T12:19:38;17.30;79.00
60473;DHT22;46318;52.716;6.444;2023-04-29T12:22:06;17.30;78.90
60473;DHT22;46318;52.716;6.444;2023-04-29T12:24:36;17.40;79.30
60473;DHT22;46318;52.716;6.444;2023-04-29T12:27:06;17.50;77.80
60473;DHT22;46318;52.716;6.444;2023-04-29T12:29:34;17.60;78.50
60473;DHT22;46318;52.716;6.444;2023-04-29T12:32:00;17.70;77.10
60473;DHT22;46318;52.716;6.444;2023-04-29T12:34:28;17.80;76.60
60473;DHT22;46318;52.716;6.444;2023-04-29T12:36:57;17.80;73.30
60473;DHT22;46318;52.716;6.444;2023-04-29T12:39:25;17.90;74.40
60473;DHT22;46318;52.716;6.444;2023-04-29T12:41:57;18.00;74.30
60473;DHT22;46318;52.716;6.444;2023-04-29T12:44:24;18.10;72.40
60473;DHT22;46318;52.716;6.444;2023-04-29T12:46:50;18.10;71.80
60473;DHT22;46318;52.716;6.444;2023-04-29T12:49:23;18.20;71.20
60473;DHT22;46318;52.716;6.444;2023-04-29T12:51:49;18.20;70.60
60473;DHT22;46318;52.716;6.444;2023-04-29T12:54:15;18.30;69.80
60473;DHT22;46318;52.716;6.444;2023-04-29T12:56:41;18.30;70.40
60473;DHT22;46318;52.716;6.444;2023-04-29T12:59:08;18.40;70.70
60473;DHT22;46318;52.716;6.444;2023-04-29T13:01:35;18.50;70.80
60473;DHT22;46318;52.716;6.444;2023-04-29T13:04:01;18.50;69.80
60473;DHT22;46318;52.716;6.444;2023-04-29T13:06:29;18.60;68.60
60473;DHT22;46318;52.716;6.444;2023-04-29T13:08:56;18.60;67.10
60473;DHT22;46318;52.716;6.444;2023-04-29T13:11:22;18.70;70.80
60473;DHT22;46318;52.716;6.444;2023-04-29T13:13:48;18.80;68.60
60473;DHT22;46318;52.716;6.444;2023-04-29T13:16:14;18.80;69.50
60473;DHT22;46318;52.716;6.444;2023-04-29T13:18:40;18.90;67.40
60473;DHT22;46318;52.716;6.444;2023-04-29T13:21:06;19.00;67.40
60473;DHT22;46318;52.716;6.444;2023-04-29T13:23:32;19.00;65.40
60473;DHT22;46318;52.716;6.444;2023-04-29T13:25:58;19.00;65.40
60473;DHT22;46318;52.716;6.444;2023-04-29T13:28:23;19.10;65.90
60473;DHT22;46318;52.716;6.444;2023-04-29T13:30:49;19.10;62.80
60473;DHT22;46318;52.716;6.444;2023-04-29T13:33:16;19.20;64.40
60473;DHT22;46318;52.716;6.444;2023-04-29T13:35:44;19.20;63.10
60473;DHT22;46318;52.716;6.444;2023-04-29T13:38:11;19.30;61.90
60473;DHT22;46318;52.716;6.444;2023-04-29T13:40:37;19.20;58.80
60473;DHT22;46318;52.716;6.444;2023-04-29T13:43:03;19.20;56.00
60473;DHT22;46318;52.716;6.444;2023-04-29T13:45:28;19.10;57.80
60473;DHT22;46318;52.716;6.444;2023-04-29T13:47:54;19.10;58.20
60473;DHT22;46318;52.716;6.444;2023-04-29T13:50:20;19.10;56.50
60473;DHT22;46318;52.716;6.444;2023-04-29T13:52:46;19.10;55.60
60473;DHT22;46318;52.716;6.444;2023-04-29T13:55:12;19.20;56.90
60473;DHT22;46318;52.716;6.444;2023-04-29T13:57:37;19.20;55.80
60473;DHT22;46318;52.716;6.444;2023-04-29T14:00:04;19.30;55.90
60473;DHT22;46318;52.716;6.444;2023-04-29T14:02:34;19.30;54.30
60473;DHT22;46318;52.716;6.444;2023-04-29T14:04:59;19.30;54.10
60473;DHT22;46318;52.716;6.444;2023-04-29T14:07:25;19.40;54.50
60473;DHT22;46318;52.716;6.444;2023-04-29T14:09:51;19.40;55.20
60473;DHT22;46318;52.716;6.444;2023-04-29T14:12:17;19.40;56.20
60473;DHT22;46318;52.716;6.444;2023-04-29T14:14:43;19.50;53.80
60473;DHT22;46318;52.716;6.444;2023-04-29T14:17:09;19.50;54.70
60473;DHT22;46318;52.716;6.444;2023-04-29T14:19:34;19.50;53.80
60473;DHT22;46318;52.716;6.444;2023-04-29T14:22:00;19.50;53.50
60473;DHT22;46318;52.716;6.444;2023-04-29T14:24:26;19.60;52.80
60473;DHT22;46318;52.716;6.444;2023-04-29T14:26:52;19.70;53.30
60473;DHT22;46318;52.716;6.444;2023-04-29T14:29:18;19.70;53.40
60473;DHT22;46318;52.716;6.444;2023-04-29T14:31:44;19.70;52.80
60473;DHT22;46318;52.716;6.444;2023-04-29T14:34:10;19.70;51.60
60473;DHT22;46318;52.716;6.444;2023-04-29T14:36:35;19.70;51.00
60473;DHT22;46318;52.716;6.444;2023-04-29T14:39:01;19.70;51.50
60473;DHT22;46318;52.716;6.444;2023-04-29T14:41:28;19.70;50.00
60473;DHT22;46318;52.716;6.444;2023-04-29T14:43:54;19.70;49.00
60473;DHT22;46318;52.716;6.444;2023-04-29T14:46:20;19.60;48.70
60473;DHT22;46318;52.716;6.444;2023-04-29T14:48:49;19.60;48.70
60473;DHT22;46318;52.716;6.444;2023-04-29T14:51:15;19.60;48.70
60473;DHT22;46318;52.716;6.444;2023-04-29T14:53:41;19.60;48.90
60473;DHT22;46318;52.716;6.444;2023-04-29T14:56:07;19.60;47.90
60473;DHT22;46318;52.716;6.444;2023-04-29T14:58:33;19.60;48.10
60473;DHT22;46318;52.716;6.444;2023-04-29T15:00:59;19.50;48.10
60473;DHT22;46318;52.716;6.444;2023-04-29T15:03:25;19.50;48.20
60473;DHT22;46318;52.716;6.444;2023-04-29T15:05:51;19.40;48.30
60473;DHT22;46318;52.716;6.444;2023-04-29T15:08:17;19.40;48.70
60473;DHT22;46318;52.716;6.444;2023-04-29T15:10:44;19.40;49.20
60473;DHT22;46318;52.716;6.444;2023-04-29T15:13:12;19.40;50.10
60473;DHT22;46318;52.716;6.444;2023-04-29T15:15:38;19.30;49.60
60473;DHT22;46318;52.716;6.444;2023-04-29T15:18:04;19.30;49.80
60473;DHT22;46318;52.716;6.444;2023-04-29T15:20:32;19.30;50.40
60473;DHT22;46318;52.716;6.444;2023-04-29T15:22:57;19.20;50.80
60473;DHT22;46318;52.716;6.444;2023-04-29T15:25:23;19.20;51.20
60473;DHT22;46318;52.716;6.444;2023-04-29T15:27:49;19.20;51.80
60473;DHT22;46318;52.716;6.444;2023-04-29T15:30:15;19.20;51.40
60473;DHT22;46318;52.716;6.444;2023-04-29T15:32:41;19.10;51.60
60473;DHT22;46318;52.716;6.444;2023-04-29T15:35:08;19.00;52.10
60473;DHT22;46318;52.716;6.444;2023-04-29T15:37:34;18.90;52.60
60473;DHT22;46318;52.716;6.444;2023-04-29T15:40:00;18.90;53.40
60473;DHT22;46318;52.716;6.444;2023-04-29T15:42:27;18.90;53.50
60473;DHT22;46318;52.716;6.444;2023-04-29T15:44:53;18.80;53.70
60473;DHT22;46318;52.716;6.444;2023-04-29T15:47:19;18.70;53.90
60473;DHT22;46318;52.716;6.444;2023-04-29T15:49:46;18.60;53.80
60473;DHT22;46318;52.716;6.444;2023-04-29T15:52:12;18.60;55.30
60473;DHT22;46318;52.716;6.444;2023-04-29T15:54:38;18.50;55.50
60473;DHT22;46318;52.716;6.444;2023-04-29T15:57:04;18.50;57.90
60473;DHT22;46318;52.716;6.444;2023-04-29T15:59:30;18.40;59.00
60473;DHT22;46318;52.716;6.444;2023-04-29T16:01:56;18.30;59.40
60473;DHT22;46318;52.716;6.444;2023-04-29T16:04:22;18.20;59.60
60473;DHT22;46318;52.716;6.444;2023-04-29T16:06:48;18.10;60.90